Svitzer Stanlow — MLNF7 — position and weather

sailwx.info

Track history (hours):
 
Tides and Currents Weather Stations Pressure Air Temp Water Temp Dewpoint Dewpoint Depression Visibility Wind Speed Wind Dir Waves Ship Positions

Svitzer Stanlow

Last reported at 2015-Jan-28 03:20 UTC. Time now 2015-Jan-28 04:16 UTC.
Position N 53°23' W 002°60'.

Length 39 m.

Type: Tug. MMSI: 235010620.

Date/timePositionNaut miles runAvg speedWind from/ knotsBaromVisibWave heightAir tempDewpointWater temp
2015-Jan-28 03:20N 53°23' W 002°60'0 0.0
2015-Jan-28 02:32N 53°23' W 002°60'0 0.0
2015-Jan-28 01:14N 53°23' W 002°60'0 0.0
2015-Jan-28 00:20N 53°23' W 002°60'0 0.0
2015-Jan-27 23:32N 53°23' W 002°60'0 0.0
2015-Jan-27 22:32N 53°23' W 002°60'0 0.0
2015-Jan-27 21:32N 53°23' W 002°60'0 0.0
2015-Jan-27 20:32N 53°23' W 002°60'0 0.0
2015-Jan-27 19:14N 53°23' W 002°60'0 0.0
2015-Jan-27 18:20N 53°23' W 002°60'0 0.0
2015-Jan-27 17:32N 53°23' W 002°60'0 0.0
2015-Jan-27 16:32N 53°23' W 002°60'0 0.0
2015-Jan-27 15:20N 53°23' W 002°60'0 0.0
2015-Jan-27 14:31N 53°23' W 002°60'0 0.0
2015-Jan-27 13:19N 53°23' W 002°60'0 0.0
2015-Jan-27 12:31N 53°23' W 002°60'0 0.0
2015-Jan-27 11:31N 53°23' W 002°60'0 0.0
2015-Jan-27 10:31N 53°23' W 002°60'0 0.0
2015-Jan-27 09:31N 53°23' W 002°60'0 0.0
2015-Jan-27 07:31N 53°23' W 002°60'0 0.0
2015-Jan-27 06:31N 53°23' W 002°60'0 0.0
2015-Jan-27 05:31N 53°23' W 002°60'0 0.0
2015-Jan-27 04:33N 53°23' W 002°60'1 0.9
2015-Jan-27 03:33N 53°24' W 003°00'7 7.4
2015-Jan-27 02:33N 53°30' W 003°06'4 4.1
2015-Jan-27 01:30N 53°31' W 003°13'7 7.4
2015-Jan-27 00:33N 53°28' W 003°03'5 4.2
2015-Jan-26 23:18N 53°23' W 003°00'0 0.0
2015-Jan-26 22:30N 53°23' W 003°00'0 0.0
2015-Jan-26 21:30N 53°23' W 003°00'0 0.0
2015-Jan-26 20:18N 53°23' W 003°00'0 0.0
2015-Jan-26 19:30N 53°23' W 003°00'0 0.0
2015-Jan-26 18:30N 53°23' W 003°00'4 4.4
2015-Jan-26 17:33N 53°27' W 003°01'1 0.6
2015-Jan-26 16:27N 53°28' W 003°02'0 0.4
2015-Jan-26 15:32N 53°28' W 003°01'0 0.0
2015-Jan-26 14:26N 53°28' W 003°01'2 2.4
2015-Jan-26 13:31N 53°25' W 003°00'0 0.0
2015-Jan-26 12:31N 53°25' W 003°00'0 0.0
2015-Jan-26 11:13N 53°25' W 003°00'0 0.0
2015-Jan-26 10:31N 53°25' W 003°00'0 0.0
2015-Jan-26 09:31N 53°25' W 003°00'0 0.0
2015-Jan-26 08:31N 53°25' W 003°00'0 0.0
2015-Jan-26 07:31N 53°25' W 003°00'2 2.1
2015-Jan-26 06:33N 53°27' W 003°01'0 0.1
2015-Jan-26 05:33N 53°27' W 003°01'0 0.4
2015-Jan-26 04:28N 53°27' W 003°01'0 0.0
2015-Jan-26 03:28N 53°27' W 003°01'0 0.2
2015-Jan-26 02:28N 53°27' W 003°01'2 1.9
2015-Jan-26 01:31N 53°28' W 003°03'6 5.7
2015-Jan-26 00:33N 53°23' W 003°00'0 0.0
2015-Jan-25 23:33N 53°23' W 003°00'0 0.1
2015-Jan-25 22:08N 53°23' W 002°60'0 0.1
2015-Jan-25 21:30N 53°23' W 002°60'0 0.0
2015-Jan-25 20:24N 53°23' W 002°60'0 0.0
2015-Jan-25 19:30N 53°23' W 002°60'0 0.0
2015-Jan-25 18:30N 53°23' W 002°60'0 0.0
2015-Jan-25 17:30N 53°23' W 002°60'0 0.0
2015-Jan-25 16:30N 53°23' W 002°60'0 0.0
2015-Jan-25 15:24N 53°23' W 002°60'0 0.0
2015-Jan-25 14:28N 53°23' W 002°60'4 4.5
2015-Jan-25 13:33N 53°27' W 003°01'1 1.0
2015-Jan-25 12:33N 53°26' W 003°01'3 1.1
2015-Jan-25 09:33N 53°23' W 002°60'0 0.0
2015-Jan-25 08:33N 53°23' W 002°60'0 0.0
2015-Jan-25 07:33N 53°23' W 002°60'0 0.0
2015-Jan-25 06:33N 53°23' W 002°60'0 0.0
2015-Jan-25 05:33N 53°23' W 002°60'0 0.0
2015-Jan-25 04:33N 53°23' W 002°60'0 0.0
2015-Jan-25 03:33N 53°23' W 002°60'0 0.0
2015-Jan-25 02:33N 53°23' W 002°60'0 0.0
2015-Jan-25 01:27N 53°23' W 002°60'0 0.0
2015-Jan-25 00:33N 53°23' W 002°60'0 0.0
2015-Jan-24 23:33N 53°23' W 002°60'0 0.0
2015-Jan-24 22:30N 53°23' W 002°60'0 0.0
2015-Jan-24 21:23N 53°23' W 002°60'0 0.0
2015-Jan-24 20:23N 53°23' W 002°60'0 0.0
2015-Jan-24 19:17N 53°23' W 002°60'0 0.0
2015-Jan-24 18:29N 53°23' W 002°60'0 0.0
2015-Jan-24 17:16N 53°23' W 002°60'0 0.0
2015-Jan-24 16:28N 53°23' W 002°60'0 0.0
2015-Jan-24 15:28N 53°23' W 002°60'0 0.0
2015-Jan-24 14:28N 53°23' W 002°60'0 0.0
2015-Jan-24 13:22N 53°23' W 002°60'0 0.0
2015-Jan-24 12:28N 53°23' W 002°60'0 0.0
2015-Jan-24 11:28N 53°23' W 002°60'0 0.0
2015-Jan-24 10:28N 53°23' W 002°60'0 0.0
2015-Jan-24 09:28N 53°23' W 002°60'0 0.0
2015-Jan-24 08:28N 53°23' W 002°60'0 0.0
2015-Jan-24 07:28N 53°23' W 002°60'0 0.0
2015-Jan-24 06:28N 53°23' W 002°60'0 0.0
2015-Jan-24 05:28N 53°23' W 002°60'0 0.0
2015-Jan-24 04:16N 53°23' W 002°60'0 0.0
2015-Jan-24 03:28N 53°23' W 002°60'0 0.0
2015-Jan-24 02:28N 53°23' W 002°60'0 0.0
2015-Jan-24 01:22N 53°23' W 002°60'0 0.0
2015-Jan-24 00:28N 53°23' W 002°60'0 0.0
2015-Jan-23 23:28N 53°23' W 002°60'0 0.0
2015-Jan-23 22:28N 53°23' W 002°60'0 0.0
2015-Jan-23 21:28N 53°23' W 002°60'0 0.0
2015-Jan-23 20:28N 53°23' W 002°60'0 0.0
2015-Jan-23 19:28N 53°23' W 002°60'0 0.0
2015-Jan-23 18:28N 53°23' W 002°60'0 0.0
2015-Jan-23 17:28N 53°23' W 002°60'0 0.0
2015-Jan-23 16:22N 53°23' W 002°60'0 0.0
2015-Jan-23 15:28N 53°23' W 002°60'0 0.0
2015-Jan-23 14:28N 53°23' W 002°60'0 0.3
2015-Jan-23 13:29N 53°23' W 003°00'3 3.7
2015-Jan-23 12:33N 53°26' W 003°01'10 8.4
2015-Jan-23 11:22N 53°31' W 003°16'4 4.6
2015-Jan-23 10:33N 53°32' W 003°10'8 8.0
2015-Jan-23 09:33N 53°26' W 003°01'3 2.8
2015-Jan-23 08:31N 53°23' W 003°00'0 0.0
2015-Jan-23 07:31N 53°23' W 003°00'0 0.0
2015-Jan-23 06:31N 53°23' W 003°00'0 0.0
2015-Jan-23 05:25N 53°23' W 003°00'0 0.0
2015-Jan-23 04:31N 53°23' W 003°00'0 0.0
2015-Jan-23 03:13N 53°23' W 003°00'0 0.0
2015-Jan-23 02:31N 53°23' W 003°00'0 0.0
2015-Jan-23 01:31N 53°23' W 003°00'0 0.0
2015-Jan-23 00:31N 53°23' W 003°00'0 0.0
2015-Jan-22 23:31N 53°23' W 003°00'0 0.0
2015-Jan-22 22:31N 53°23' W 003°00'0 0.0
2015-Jan-22 21:31N 53°23' W 003°00'0 0.0
2015-Jan-22 20:31N 53°23' W 003°00'0 0.0
2015-Jan-22 19:31N 53°23' W 003°00'0 0.0
2015-Jan-22 18:25N 53°23' W 003°00'0 0.0
2015-Jan-22 17:25N 53°23' W 003°00'0 0.0
2015-Jan-22 16:24N 53°23' W 003°00'0 0.0
2015-Jan-22 15:30N 53°23' W 003°00'0 0.0
2015-Jan-22 14:30N 53°23' W 003°00'0 0.0
2015-Jan-22 13:30N 53°23' W 003°00'0 0.0
2015-Jan-22 12:30N 53°23' W 003°00'0 0.0
2015-Jan-22 11:24N 53°23' W 003°00'0 0.0
2015-Jan-22 10:30N 53°23' W 003°00'0 0.0
2015-Jan-22 09:30N 53°23' W 003°00'0 0.0
2015-Jan-22 08:30N 53°23' W 003°00'0 0.0
2015-Jan-22 07:30N 53°23' W 003°00'0 0.0
2015-Jan-22 06:30N 53°23' W 003°00'0 0.0
2015-Jan-22 05:30N 53°23' W 003°00'0 0.0
2015-Jan-22 04:24N 53°23' W 003°00'0 0.0
2015-Jan-22 03:30N 53°23' W 003°00'0 0.0
2015-Jan-22 02:30N 53°23' W 003°00'0 0.0
2015-Jan-22 01:30N 53°23' W 003°00'0 0.0
2015-Jan-22 00:30N 53°23' W 003°00'0 0.0
2015-Jan-21 23:30N 53°23' W 003°00'0 0.0
2015-Jan-21 22:48N 53°23' W 003°00'0 0.0
2015-Jan-21 22:42N 53°23' W 003°00'0 0.0
2015-Jan-21 22:30N 53°23' W 003°00'0 0.0
2015-Jan-21 21:24N 53°23' W 003°00'0 0.0
2015-Jan-21 20:30N 53°23' W 003°00'0 0.0
2015-Jan-21 19:30N 53°23' W 003°00'0 0.0
2015-Jan-21 18:30N 53°23' W 003°00'0 0.0
2015-Jan-21 17:30N 53°23' W 003°00'0 0.0
2015-Jan-21 16:30N 53°23' W 003°00'0 0.0
2015-Jan-21 15:30N 53°23' W 003°00'0 0.0
2015-Jan-21 14:30N 53°23' W 003°00'0 0.0
2015-Jan-21 13:30N 53°23' W 003°00'0 0.0
2015-Jan-21 12:30N 53°23' W 003°00'0 0.0
2015-Jan-21 11:30N 53°23' W 003°00'0 0.0
2015-Jan-21 10:30N 53°23' W 003°00'0 0.0
2015-Jan-21 09:30N 53°23' W 003°00'0 0.0
2015-Jan-21 08:30N 53°23' W 003°00'0 0.0
2015-Jan-21 07:29N 53°23' W 003°00'0 0.0
2015-Jan-21 06:29N 53°23' W 003°00'0 0.0
2015-Jan-21 05:29N 53°23' W 003°00'0 0.0
2015-Jan-21 04:29N 53°23' W 003°00'0 0.0
2015-Jan-21 03:29N 53°23' W 003°00'0 0.0
2015-Jan-21 02:29N 53°23' W 003°00'0 0.0
2015-Jan-21 01:29N 53°23' W 003°00'0 0.0
2015-Jan-21 00:29N 53°23' W 003°00'0 0.0
2015-Jan-20 23:29N 53°23' W 003°00'0 0.0
2015-Jan-20 22:29N 53°23' W 003°00'0 0.0
2015-Jan-20 21:29N 53°23' W 003°00'0 0.0
2015-Jan-20 20:29N 53°23' W 003°00'0 0.0
2015-Jan-20 19:17N 53°23' W 003°00'0 0.0
2015-Jan-20 18:29N 53°23' W 003°00'0 0.0
2015-Jan-20 17:29N 53°23' W 003°00'0 0.0
2015-Jan-20 16:29N 53°23' W 003°00'0 0.0
2015-Jan-20 15:29N 53°23' W 003°00'0 0.0
2015-Jan-20 14:29N 53°23' W 003°00'0 0.0
2015-Jan-20 13:29N 53°23' W 003°00'0 0.2
2015-Jan-20 12:33N 53°23' W 002°60'0 0.1
2015-Jan-20 11:31N 53°23' W 002°60'0 0.3
2015-Jan-20 10:33N 53°23' W 003°00'8 8.0
2015-Jan-20 09:33N 53°30' W 003°06'4 4.3
2015-Jan-20 08:31N 53°31' W 003°13'8 8.5
2015-Jan-20 07:33N 53°27' W 003°02'4 3.8
2015-Jan-20 06:24N 53°23' W 002°60'0 0.3
2015-Jan-20 05:30N 53°23' W 003°00'0 0.0
2015-Jan-20 04:12N 53°23' W 003°00'0 0.0
2015-Jan-20 03:24N 53°23' W 003°00'0 0.0
2015-Jan-20 02:30N 53°23' W 003°00'0 0.0
2015-Jan-20 01:18N 53°23' W 003°00'0 0.0
2015-Jan-20 00:30N 53°23' W 003°00'0 0.0
2015-Jan-19 23:30N 53°23' W 003°00'0 0.0
2015-Jan-19 22:18N 53°23' W 003°00'4 5.3
2015-Jan-19 21:34N 53°27' W 003°01'1 0.8
2015-Jan-19 20:33N 53°27' W 003°02'4 4.4
2015-Jan-19 19:33N 53°23' W 003°00'0 0.0
2015-Jan-19 18:24N 53°23' W 002°60'0 0.3
2015-Jan-19 17:34N 53°23' W 002°60'0 0.0
2015-Jan-19 16:33N 53°23' W 002°60'0 0.0
2015-Jan-19 14:21N 53°23' W 002°60'0 0.0
2015-Jan-19 13:33N 53°23' W 002°60'0 0.0
2015-Jan-19 12:27N 53°23' W 002°60'0 0.0
2015-Jan-19 11:33N 53°23' W 002°60'0 0.0
2015-Jan-19 10:33N 53°23' W 002°60'0 0.0
2015-Jan-19 09:33N 53°23' W 002°60'0 0.0
2015-Jan-19 08:33N 53°23' W 002°60'0 0.0
2015-Jan-19 07:33N 53°23' W 002°60'0 0.0
2015-Jan-19 06:27N 53°23' W 002°60'0 0.0
2015-Jan-19 05:27N 53°23' W 002°60'0 0.0
2015-Jan-19 04:15N 53°23' W 002°60'0 0.0
2015-Jan-19 03:27N 53°23' W 002°60'0 0.0
2015-Jan-19 01:27N 53°23' W 002°60'0 0.0
2015-Jan-19 00:33N 53°23' W 002°60'0 0.0
2015-Jan-18 23:33N 53°23' W 002°60'0 0.0
2015-Jan-18 22:27N 53°23' W 002°60'0 0.0
2015-Jan-18 21:33N 53°23' W 002°60'0 0.0
2015-Jan-18 20:33N 53°23' W 002°60'0 0.0
2015-Jan-18 19:33N 53°23' W 002°60'0 0.0
2015-Jan-18 18:33N 53°23' W 002°60'0 0.0
2015-Jan-18 17:33N 53°23' W 002°60'0 0.0
2015-Jan-18 16:33N 53°23' W 002°60'0 0.0
2015-Jan-18 15:33N 53°23' W 002°60'0 0.0
2015-Jan-18 14:33N 53°23' W 002°60'0 0.0
2015-Jan-18 13:33N 53°23' W 002°60'0 0.0
2015-Jan-18 12:33N 53°23' W 002°60'0 0.0
2015-Jan-18 11:33N 53°23' W 002°60'0 0.1
2015-Jan-18 09:29N 53°23' W 003°00'2 1.9
2015-Jan-18 08:33N 53°25' W 003°01'11 8.3
2015-Jan-18 07:11N 53°31' W 003°16'6 8.9
2015-Jan-18 06:33N 53°31' W 003°07'8 8.3
2015-Jan-18 05:33N 53°24' W 003°00'1 0.8
2015-Jan-18 04:32N 53°23' W 003°00'0 0.0
2015-Jan-18 03:32N 53°23' W 003°00'  
Track history (hours):
 
Tides and Currents Weather Stations Pressure Air Temp Water Temp Dewpoint Dewpoint Depression Visibility Wind Speed Wind Dir Waves Ship Positions

Svitzer Stanlow

Last reported at 2015-Jan-28 03:20 UTC. Time now 2015-Jan-28 04:16 UTC.
Position N 53°23' W 002°60'.

Length 39 m.

Type: Tug. MMSI: 235010620.

Date/timePositionNaut miles runAvg speedWind from/ knotsBaromVisibWave heightAir tempDewpointWater temp
2015-Jan-28 03:20N 53°23' W 002°60'0 0.0
2015-Jan-28 02:32N 53°23' W 002°60'0 0.0
2015-Jan-28 01:14N 53°23' W 002°60'0 0.0
2015-Jan-28 00:20N 53°23' W 002°60'0 0.0
2015-Jan-27 23:32N 53°23' W 002°60'0 0.0
2015-Jan-27 22:32N 53°23' W 002°60'0 0.0
2015-Jan-27 21:32N 53°23' W 002°60'0 0.0
2015-Jan-27 20:32N 53°23' W 002°60'0 0.0
2015-Jan-27 19:14N 53°23' W 002°60'0 0.0
2015-Jan-27 18:20N 53°23' W 002°60'0 0.0
2015-Jan-27 17:32N 53°23' W 002°60'0 0.0
2015-Jan-27 16:32N 53°23' W 002°60'0 0.0
2015-Jan-27 15:20N 53°23' W 002°60'0 0.0
2015-Jan-27 14:31N 53°23' W 002°60'0 0.0
2015-Jan-27 13:19N 53°23' W 002°60'0 0.0
2015-Jan-27 12:31N 53°23' W 002°60'0 0.0
2015-Jan-27 11:31N 53°23' W 002°60'0 0.0
2015-Jan-27 10:31N 53°23' W 002°60'0 0.0
2015-Jan-27 09:31N 53°23' W 002°60'0 0.0
2015-Jan-27 07:31N 53°23' W 002°60'0 0.0
2015-Jan-27 06:31N 53°23' W 002°60'0 0.0
2015-Jan-27 05:31N 53°23' W 002°60'0 0.0
2015-Jan-27 04:33N 53°23' W 002°60'1 0.9
2015-Jan-27 03:33N 53°24' W 003°00'7 7.4
2015-Jan-27 02:33N 53°30' W 003°06'4 4.1
2015-Jan-27 01:30N 53°31' W 003°13'7 7.4
2015-Jan-27 00:33N 53°28' W 003°03'5 4.2
2015-Jan-26 23:18N 53°23' W 003°00'0 0.0
2015-Jan-26 22:30N 53°23' W 003°00'0 0.0
2015-Jan-26 21:30N 53°23' W 003°00'0 0.0
2015-Jan-26 20:18N 53°23' W 003°00'0 0.0
2015-Jan-26 19:30N 53°23' W 003°00'0 0.0
2015-Jan-26 18:30N 53°23' W 003°00'4 4.4
2015-Jan-26 17:33N 53°27' W 003°01'1 0.6
2015-Jan-26 16:27N 53°28' W 003°02'0 0.4
2015-Jan-26 15:32N 53°28' W 003°01'0 0.0
2015-Jan-26 14:26N 53°28' W 003°01'2 2.4
2015-Jan-26 13:31N 53°25' W 003°00'0 0.0
2015-Jan-26 12:31N 53°25' W 003°00'0 0.0
2015-Jan-26 11:13N 53°25' W 003°00'0 0.0
2015-Jan-26 10:31N 53°25' W 003°00'0 0.0
2015-Jan-26 09:31N 53°25' W 003°00'0 0.0
2015-Jan-26 08:31N 53°25' W 003°00'0 0.0
2015-Jan-26 07:31N 53°25' W 003°00'2 2.1
2015-Jan-26 06:33N 53°27' W 003°01'0 0.1
2015-Jan-26 05:33N 53°27' W 003°01'0 0.4
2015-Jan-26 04:28N 53°27' W 003°01'0 0.0
2015-Jan-26 03:28N 53°27' W 003°01'0 0.2
2015-Jan-26 02:28N 53°27' W 003°01'2 1.9
2015-Jan-26 01:31N 53°28' W 003°03'6 5.7
2015-Jan-26 00:33N 53°23' W 003°00'0 0.0
2015-Jan-25 23:33N 53°23' W 003°00'0 0.1
2015-Jan-25 22:08N 53°23' W 002°60'0 0.1
2015-Jan-25 21:30N 53°23' W 002°60'0 0.0
2015-Jan-25 20:24N 53°23' W 002°60'0 0.0
2015-Jan-25 19:30N 53°23' W 002°60'0 0.0
2015-Jan-25 18:30N 53°23' W 002°60'0 0.0
2015-Jan-25 17:30N 53°23' W 002°60'0 0.0
2015-Jan-25 16:30N 53°23' W 002°60'0 0.0
2015-Jan-25 15:24N 53°23' W 002°60'0 0.0
2015-Jan-25 14:28N 53°23' W 002°60'4 4.5
2015-Jan-25 13:33N 53°27' W 003°01'1 1.0
2015-Jan-25 12:33N 53°26' W 003°01'3 1.1
2015-Jan-25 09:33N 53°23' W 002°60'0 0.0
2015-Jan-25 08:33N 53°23' W 002°60'0 0.0
2015-Jan-25 07:33N 53°23' W 002°60'0 0.0
2015-Jan-25 06:33N 53°23' W 002°60'0 0.0
2015-Jan-25 05:33N 53°23' W 002°60'0 0.0
2015-Jan-25 04:33N 53°23' W 002°60'0 0.0
2015-Jan-25 03:33N 53°23' W 002°60'0 0.0
2015-Jan-25 02:33N 53°23' W 002°60'0 0.0
2015-Jan-25 01:27N 53°23' W 002°60'0 0.0
2015-Jan-25 00:33N 53°23' W 002°60'0 0.0
2015-Jan-24 23:33N 53°23' W 002°60'0 0.0
2015-Jan-24 22:30N 53°23' W 002°60'0 0.0
2015-Jan-24 21:23N 53°23' W 002°60'0 0.0
2015-Jan-24 20:23N 53°23' W 002°60'0 0.0
2015-Jan-24 19:17N 53°23' W 002°60'0 0.0
2015-Jan-24 18:29N 53°23' W 002°60'0 0.0
2015-Jan-24 17:16N 53°23' W 002°60'0 0.0
2015-Jan-24 16:28N 53°23' W 002°60'0 0.0
2015-Jan-24 15:28N 53°23' W 002°60'0 0.0
2015-Jan-24 14:28N 53°23' W 002°60'0 0.0
2015-Jan-24 13:22N 53°23' W 002°60'0 0.0
2015-Jan-24 12:28N 53°23' W 002°60'0 0.0
2015-Jan-24 11:28N 53°23' W 002°60'0 0.0
2015-Jan-24 10:28N 53°23' W 002°60'0 0.0
2015-Jan-24 09:28N 53°23' W 002°60'0 0.0
2015-Jan-24 08:28N 53°23' W 002°60'0 0.0
2015-Jan-24 07:28N 53°23' W 002°60'0 0.0
2015-Jan-24 06:28N 53°23' W 002°60'0 0.0
2015-Jan-24 05:28N 53°23' W 002°60'0 0.0
2015-Jan-24 04:16N 53°23' W 002°60'0 0.0
2015-Jan-24 03:28N 53°23' W 002°60'0 0.0
2015-Jan-24 02:28N 53°23' W 002°60'0 0.0
2015-Jan-24 01:22N 53°23' W 002°60'0 0.0
2015-Jan-24 00:28N 53°23' W 002°60'0 0.0
2015-Jan-23 23:28N 53°23' W 002°60'0 0.0
2015-Jan-23 22:28N 53°23' W 002°60'0 0.0
2015-Jan-23 21:28N 53°23' W 002°60'0 0.0
2015-Jan-23 20:28N 53°23' W 002°60'0 0.0
2015-Jan-23 19:28N 53°23' W 002°60'0 0.0
2015-Jan-23 18:28N 53°23' W 002°60'0 0.0
2015-Jan-23 17:28N 53°23' W 002°60'0 0.0
2015-Jan-23 16:22N 53°23' W 002°60'0 0.0
2015-Jan-23 15:28N 53°23' W 002°60'0 0.0
2015-Jan-23 14:28N 53°23' W 002°60'0 0.3
2015-Jan-23 13:29N 53°23' W 003°00'3 3.7
2015-Jan-23 12:33N 53°26' W 003°01'10 8.4
2015-Jan-23 11:22N 53°31' W 003°16'4 4.6
2015-Jan-23 10:33N 53°32' W 003°10'8 8.0
2015-Jan-23 09:33N 53°26' W 003°01'3 2.8
2015-Jan-23 08:31N 53°23' W 003°00'0 0.0
2015-Jan-23 07:31N 53°23' W 003°00'0 0.0
2015-Jan-23 06:31N 53°23' W 003°00'0 0.0
2015-Jan-23 05:25N 53°23' W 003°00'0 0.0
2015-Jan-23 04:31N 53°23' W 003°00'0 0.0
2015-Jan-23 03:13N 53°23' W 003°00'0 0.0
2015-Jan-23 02:31N 53°23' W 003°00'0 0.0
2015-Jan-23 01:31N 53°23' W 003°00'0 0.0
2015-Jan-23 00:31N 53°23' W 003°00'0 0.0
2015-Jan-22 23:31N 53°23' W 003°00'0 0.0
2015-Jan-22 22:31N 53°23' W 003°00'0 0.0
2015-Jan-22 21:31N 53°23' W 003°00'0 0.0
2015-Jan-22 20:31N 53°23' W 003°00'0 0.0
2015-Jan-22 19:31N 53°23' W 003°00'0 0.0
2015-Jan-22 18:25N 53°23' W 003°00'0 0.0
2015-Jan-22 17:25N 53°23' W 003°00'0 0.0
2015-Jan-22 16:24N 53°23' W 003°00'0 0.0
2015-Jan-22 15:30N 53°23' W 003°00'0 0.0
2015-Jan-22 14:30N 53°23' W 003°00'0 0.0
2015-Jan-22 13:30N 53°23' W 003°00'0 0.0
2015-Jan-22 12:30N 53°23' W 003°00'0 0.0
2015-Jan-22 11:24N 53°23' W 003°00'0 0.0
2015-Jan-22 10:30N 53°23' W 003°00'0 0.0
2015-Jan-22 09:30N 53°23' W 003°00'0 0.0
2015-Jan-22 08:30N 53°23' W 003°00'0 0.0
2015-Jan-22 07:30N 53°23' W 003°00'0 0.0
2015-Jan-22 06:30N 53°23' W 003°00'0 0.0
2015-Jan-22 05:30N 53°23' W 003°00'0 0.0
2015-Jan-22 04:24N 53°23' W 003°00'0 0.0
2015-Jan-22 03:30N 53°23' W 003°00'0 0.0
2015-Jan-22 02:30N 53°23' W 003°00'0 0.0
2015-Jan-22 01:30N 53°23' W 003°00'0 0.0
2015-Jan-22 00:30N 53°23' W 003°00'0 0.0
2015-Jan-21 23:30N 53°23' W 003°00'0 0.0
2015-Jan-21 22:48N 53°23' W 003°00'0 0.0
2015-Jan-21 22:42N 53°23' W 003°00'0 0.0
2015-Jan-21 22:30N 53°23' W 003°00'0 0.0
2015-Jan-21 21:24N 53°23' W 003°00'0 0.0
2015-Jan-21 20:30N 53°23' W 003°00'0 0.0
2015-Jan-21 19:30N 53°23' W 003°00'0 0.0
2015-Jan-21 18:30N 53°23' W 003°00'0 0.0
2015-Jan-21 17:30N 53°23' W 003°00'0 0.0
2015-Jan-21 16:30N 53°23' W 003°00'0 0.0
2015-Jan-21 15:30N 53°23' W 003°00'0 0.0
2015-Jan-21 14:30N 53°23' W 003°00'0 0.0
2015-Jan-21 13:30N 53°23' W 003°00'0 0.0
2015-Jan-21 12:30N 53°23' W 003°00'0 0.0
2015-Jan-21 11:30N 53°23' W 003°00'0 0.0
2015-Jan-21 10:30N 53°23' W 003°00'0 0.0
2015-Jan-21 09:30N 53°23' W 003°00'0 0.0
2015-Jan-21 08:30N 53°23' W 003°00'0 0.0
2015-Jan-21 07:29N 53°23' W 003°00'0 0.0
2015-Jan-21 06:29N 53°23' W 003°00'0 0.0
2015-Jan-21 05:29N 53°23' W 003°00'0 0.0
2015-Jan-21 04:29N 53°23' W 003°00'0 0.0
2015-Jan-21 03:29N 53°23' W 003°00'0 0.0
2015-Jan-21 02:29N 53°23' W 003°00'0 0.0
2015-Jan-21 01:29N 53°23' W 003°00'0 0.0
2015-Jan-21 00:29N 53°23' W 003°00'0 0.0
2015-Jan-20 23:29N 53°23' W 003°00'0 0.0
2015-Jan-20 22:29N 53°23' W 003°00'0 0.0
2015-Jan-20 21:29N 53°23' W 003°00'0 0.0
2015-Jan-20 20:29N 53°23' W 003°00'0 0.0
2015-Jan-20 19:17N 53°23' W 003°00'0 0.0
2015-Jan-20 18:29N 53°23' W 003°00'0 0.0
2015-Jan-20 17:29N 53°23' W 003°00'0 0.0
2015-Jan-20 16:29N 53°23' W 003°00'0 0.0
2015-Jan-20 15:29N 53°23' W 003°00'0 0.0
2015-Jan-20 14:29N 53°23' W 003°00'0 0.0
2015-Jan-20 13:29N 53°23' W 003°00'0 0.2
2015-Jan-20 12:33N 53°23' W 002°60'0 0.1
2015-Jan-20 11:31N 53°23' W 002°60'0 0.3
2015-Jan-20 10:33N 53°23' W 003°00'8 8.0
2015-Jan-20 09:33N 53°30' W 003°06'4 4.3
2015-Jan-20 08:31N 53°31' W 003°13'8 8.5
2015-Jan-20 07:33N 53°27' W 003°02'4 3.8
2015-Jan-20 06:24N 53°23' W 002°60'0 0.3
2015-Jan-20 05:30N 53°23' W 003°00'0 0.0
2015-Jan-20 04:12N 53°23' W 003°00'0 0.0
2015-Jan-20 03:24N 53°23' W 003°00'0 0.0
2015-Jan-20 02:30N 53°23' W 003°00'0 0.0
2015-Jan-20 01:18N 53°23' W 003°00'0 0.0
2015-Jan-20 00:30N 53°23' W 003°00'0 0.0
2015-Jan-19 23:30N 53°23' W 003°00'0 0.0
2015-Jan-19 22:18N 53°23' W 003°00'4 5.3
2015-Jan-19 21:34N 53°27' W 003°01'1 0.8
2015-Jan-19 20:33N 53°27' W 003°02'4 4.4
2015-Jan-19 19:33N 53°23' W 003°00'0 0.0
2015-Jan-19 18:24N 53°23' W 002°60'0 0.3
2015-Jan-19 17:34N 53°23' W 002°60'0 0.0
2015-Jan-19 16:33N 53°23' W 002°60'0 0.0
2015-Jan-19 14:21N 53°23' W 002°60'0 0.0
2015-Jan-19 13:33N 53°23' W 002°60'0 0.0
2015-Jan-19 12:27N 53°23' W 002°60'0 0.0
2015-Jan-19 11:33N 53°23' W 002°60'0 0.0
2015-Jan-19 10:33N 53°23' W 002°60'0 0.0
2015-Jan-19 09:33N 53°23' W 002°60'0 0.0
2015-Jan-19 08:33N 53°23' W 002°60'0 0.0
2015-Jan-19 07:33N 53°23' W 002°60'0 0.0
2015-Jan-19 06:27N 53°23' W 002°60'0 0.0
2015-Jan-19 05:27N 53°23' W 002°60'0 0.0
2015-Jan-19 04:15N 53°23' W 002°60'0 0.0
2015-Jan-19 03:27N 53°23' W 002°60'0 0.0
2015-Jan-19 01:27N 53°23' W 002°60'0 0.0
2015-Jan-19 00:33N 53°23' W 002°60'0 0.0
2015-Jan-18 23:33N 53°23' W 002°60'0 0.0
2015-Jan-18 22:27N 53°23' W 002°60'0 0.0
2015-Jan-18 21:33N 53°23' W 002°60'0 0.0
2015-Jan-18 20:33N 53°23' W 002°60'0 0.0
2015-Jan-18 19:33N 53°23' W 002°60'0 0.0
2015-Jan-18 18:33N 53°23' W 002°60'0 0.0
2015-Jan-18 17:33N 53°23' W 002°60'0 0.0
2015-Jan-18 16:33N 53°23' W 002°60'0 0.0
2015-Jan-18 15:33N 53°23' W 002°60'0 0.0
2015-Jan-18 14:33N 53°23' W 002°60'0 0.0
2015-Jan-18 13:33N 53°23' W 002°60'0 0.0
2015-Jan-18 12:33N 53°23' W 002°60'0 0.0
2015-Jan-18 11:33N 53°23' W 002°60'0 0.1
2015-Jan-18 09:29N 53°23' W 003°00'2 1.9
2015-Jan-18 08:33N 53°25' W 003°01'11 8.3
2015-Jan-18 07:11N 53°31' W 003°16'6 8.9
2015-Jan-18 06:33N 53°31' W 003°07'8 8.3
2015-Jan-18 05:33N 53°24' W 003°00'1 0.8
2015-Jan-18 04:32N 53°23' W 003°00'0 0.0
2015-Jan-18 03:32N 53°23' W 003°00'  

Dump ship's entire track history